Time;durP1;ratioP1;P1;durP2;ratioP2;P2;SDS_P1;SDS_P2;PMS_P1;PMS_P2;Temp;Humidity;BMP_temperature;BMP_pressure;BME280_temperature;BME280_humidity;BME280_pressure;Samples;Min_cycle;Max_cycle;Signal;HPM_P1;HPM_P2
2023/07/11 00:00:14;;;;;;;5.57;1.90;;;18.80;99.90;;;;;;5056380;28;20128;-75
2023/07/11 00:02:42;;;;;;;7.05;1.92;;;18.80;99.90;;;;;;5060815;28;20063;-75
2023/07/11 00:05:08;;;;;;;6.43;1.80;;;18.80;99.90;;;;;;5053600;28;20064;-74
2023/07/11 00:07:33;;;;;;;4.95;2.10;;;18.70;99.90;;;;;;5058035;28;20040;-74
2023/07/11 00:09:59;;;;;;;5.75;1.90;;;18.70;99.90;;;;;;5057905;28;20043;-76
2023/07/11 00:12:28;;;;;;;5.50;1.80;;;18.70;99.90;;;;;;5063382;28;21545;-75
2023/07/11 00:14:56;;;;;;;5.57;1.60;;;18.70;99.90;;;;;;5059076;28;20098;-75
2023/07/11 00:17:22;;;;;;;6.45;1.98;;;18.80;99.90;;;;;;5054671;28;20500;-76
2023/07/11 00:19:58;;;;;;;5.88;1.95;;;18.80;99.90;;;;;;5057435;28;20137;-75
2023/07/11 00:22:29;;;;;;;5.50;1.70;;;18.80;99.90;;;;;;5042630;28;20052;-76
2023/07/11 00:24:58;;;;;;;5.88;2.03;;;18.80;99.90;;;;;;5059361;28;20044;-75
2023/07/11 00:27:24;;;;;;;5.75;2.20;;;18.80;99.90;;;;;;5057949;28;20048;-74
2023/07/11 00:29:50;;;;;;;7.15;2.08;;;18.80;99.90;;;;;;5055574;28;20048;-75
2023/07/11 00:32:16;;;;;;;5.07;1.50;;;18.80;99.90;;;;;;5057142;28;20403;-74
2023/07/11 00:34:42;;;;;;;5.80;1.90;;;18.80;99.90;;;;;;5058313;28;20790;-75
2023/07/11 00:37:08;;;;;;;9.73;1.77;;;18.80;99.90;;;;;;5053970;28;20138;-76
2023/07/11 00:39:35;;;;;;;3.95;1.75;;;18.80;99.90;;;;;;5057527;28;20040;-76
2023/07/11 00:42:02;;;;;;;5.20;1.70;;;18.80;99.90;;;;;;5057381;28;20036;-75
2023/07/11 00:44:28;;;;;;;4.30;1.50;;;18.80;99.90;;;;;;5056984;28;20037;-76
2023/07/11 00:46:53;;;;;;;5.07;1.45;;;18.80;99.90;;;;;;5055458;28;20056;-76
2023/07/11 00:49:22;;;;;;;7.03;1.73;;;18.80;99.90;;;;;;5054007;28;20052;-76
2023/07/11 00:52:00;;;;;;;5.57;1.35;;;18.80;99.90;;;;;;5057157;28;20140;-76
2023/07/11 00:54:32;;;;;;;4.13;1.60;;;18.80;99.90;;;;;;5056388;28;20045;-75
2023/07/11 00:57:00;;;;;;;3.67;1.67;;;18.80;99.90;;;;;;5056313;28;20209;-75
2023/07/11 00:59:26;;;;;;;4.22;1.63;;;18.80;99.90;;;;;;5057603;28;20044;-75
2023/07/11 01:02:09;;;;;;;6.45;2.10;;;18.80;99.90;;;;;;5056977;28;20506;-76
2023/07/11 01:04:36;;;;;;;5.32;1.52;;;18.80;99.90;;;;;;5055572;28;20048;-74
2023/07/11 01:07:03;;;;;;;4.47;1.75;;;18.70;99.90;;;;;;5057639;28;20461;-74
2023/07/11 01:09:29;;;;;;;6.38;1.85;;;18.70;99.90;;;;;;5056585;28;20048;-77
2023/07/11 01:12:00;;;;;;;5.68;1.80;;;18.70;99.90;;;;;;5052305;28;20044;-76
2023/07/11 01:14:29;;;;;;;6.80;2.22;;;18.70;99.90;;;;;;5055945;28;20376;-77
2023/07/11 01:16:55;;;;;;;7.75;1.85;;;18.60;99.90;;;;;;5057441;28;20072;-77
2023/07/11 01:19:23;;;;;;;4.63;1.88;;;18.60;99.90;;;;;;5053495;28;20044;-76
2023/07/11 01:21:49;;;;;;;5.13;1.88;;;18.60;99.90;;;;;;5054785;28;20044;-75
2023/07/11 01:24:15;;;;;;;5.72;2.05;;;18.60;99.90;;;;;;5053780;28;20500;-75
2023/07/11 01:26:41;;;;;;;4.07;2.00;;;18.60;99.90;;;;;;5054656;28;20028;-76
2023/07/11 01:29:07;;;;;;;6.05;2.15;;;18.50;99.90;;;;;;5055934;28;20049;-74
2023/07/11 01:31:33;;;;;;;10.15;2.42;;;18.50;99.90;;;;;;5053376;28;20223;-75
2023/07/11 01:34:04;;;;;;;5.85;2.55;;;18.50;99.90;;;;;;5060283;28;20049;-75
2023/07/11 01:36:30;;;;;;;6.38;2.28;;;18.40;99.90;;;;;;5056664;28;20051;-76
2023/07/11 01:38:59;;;;;;;7.22;2.72;;;18.30;99.90;;;;;;5049670;28;20048;-76
2023/07/11 01:41:25;;;;;;;7.18;2.83;;;18.30;99.90;;;;;;5060327;28;20099;-75
2023/07/11 01:43:53;;;;;;;7.63;2.75;;;18.30;99.90;;;;;;5057563;28;20049;-76
2023/07/11 01:46:18;;;;;;;7.85;3.03;;;18.20;99.90;;;;;;5052359;28;20613;-75
2023/07/11 01:48:44;;;;;;;5.75;2.65;;;18.20;99.90;;;;;;5057741;28;20049;-76
2023/07/11 01:51:10;;;;;;;6.65;3.03;;;18.10;99.90;;;;;;5052842;28;20075;-75
2023/07/11 01:53:36;;;;;;;12.10;4.03;;;18.10;99.90;;;;;;5051643;28;20126;-74
2023/07/11 01:56:03;;;;;;;7.75;3.88;;;18.00;99.90;;;;;;5054502;28;20056;-72
2023/07/11 01:58:30;;;;;;;8.73;4.15;;;18.00;99.90;;;;;;5042556;28;20119;-76
2023/07/11 02:00:57;;;;;;;7.75;4.05;;;18.00;99.90;;;;;;5056900;28;20052;-75
2023/07/11 02:03:24;;;;;;;9.15;4.50;;;17.90;99.90;;;;;;5056191;28;20048;-75
2023/07/11 02:05:50;;;;;;;9.57;3.95;;;17.90;99.90;;;;;;5053800;28;20090;-75
2023/07/11 02:08:16;;;;;;;5.90;3.65;;;17.90;99.90;;;;;;5054640;28;20049;-74
2023/07/11 02:10:42;;;;;;;7.85;3.72;;;17.90;99.90;;;;;;5059805;28;20044;-75
2023/07/11 02:13:09;;;;;;;7.78;3.83;;;17.90;99.90;;;;;;5054313;28;20056;-75
2023/07/11 02:15:35;;;;;;;6.75;3.40;;;17.90;99.90;;;;;;5068003;28;20041;-74
2023/07/11 02:18:01;;;;;;;7.80;3.30;;;17.90;99.90;;;;;;5055706;28;20523;-75
2023/07/11 02:20:27;;;;;;;7.30;3.58;;;17.90;99.90;;;;;;5055905;28;20048;-75
2023/07/11 02:22:53;;;;;;;6.28;2.90;;;17.90;99.90;;;;;;5051383;28;20036;-75
2023/07/11 02:25:19;;;;;;;7.32;3.20;;;17.80;99.90;;;;;;5061894;28;20099;-75
2023/07/11 02:27:44;;;;;;;6.43;3.15;;;17.80;99.90;;;;;;5058081;28;20337;-75
2023/07/11 02:30:10;;;;;;;8.27;3.22;;;17.90;99.90;;;;;;5049892;28;20044;-75
2023/07/11 02:32:36;;;;;;;9.25;3.30;;;17.80;99.90;;;;;;5058258;28;20036;-76
2023/07/11 02:35:02;;;;;;;8.35;4.00;;;17.80;99.90;;;;;;5050966;28;20040;-74
2023/07/11 02:37:27;;;;;;;7.80;3.28;;;17.80;99.90;;;;;;5049762;28;20565;-75
2023/07/11 02:39:53;;;;;;;8.10;3.50;;;17.80;99.90;;;;;;5017457;28;20076;-76
2023/07/11 02:42:19;;;;;;;8.20;3.55;;;17.80;99.90;;;;;;5058326;28;20057;-74
2023/07/11 02:44:44;;;;;;;9.80;3.35;;;17.90;99.90;;;;;;5053355;28;20086;-75
2023/07/11 02:47:11;;;;;;;6.35;3.30;;;17.80;99.90;;;;;;5051972;28;20048;-75
2023/07/11 02:49:38;;;;;;;5.90;3.40;;;17.80;99.90;;;;;;5049270;28;20087;-76
2023/07/11 02:52:06;;;;;;;7.95;3.05;;;17.80;99.90;;;;;;5050789;28;20534;-75
2023/07/11 02:54:32;;;;;;;7.05;3.53;;;17.80;99.90;;;;;;5049927;28;20037;-76
2023/07/11 02:56:58;;;;;;;7.60;3.28;;;17.80;99.90;;;;;;5048816;28;20047;-74
2023/07/11 02:59:24;;;;;;;6.13;2.90;;;17.80;99.90;;;;;;5056860;28;20113;-76
2023/07/11 03:01:49;;;;;;;6.70;3.30;;;17.70;99.90;;;;;;5059202;28;20102;-77
2023/07/11 03:04:15;;;;;;;6.70;3.22;;;17.70;99.90;;;;;;5062007;28;20045;-76
2023/07/11 03:06:41;;;;;;;7.90;3.15;;;17.70;99.90;;;;;;5040885;28;20044;-76
2023/07/11 03:09:06;;;;;;;9.73;3.67;;;17.70;99.90;;;;;;5041852;28;20032;-76
2023/07/11 03:11:32;;;;;;;8.20;3.83;;;17.70;99.90;;;;;;5057128;28;20379;-76
2023/07/11 03:13:57;;;;;;;8.63;3.60;;;17.70;99.90;;;;;;5062375;28;20518;-76
2023/07/11 03:16:23;;;;;;;9.27;3.90;;;17.70;99.90;;;;;;5058228;28;20037;-75
2023/07/11 03:18:49;;;;;;;6.82;4.00;;;17.70;99.90;;;;;;5059313;28;20715;-75
2023/07/11 03:21:15;;;;;;;10.05;4.38;;;17.70;99.90;;;;;;5054351;28;20131;-76
2023/07/11 03:23:40;;;;;;;10.45;4.07;;;17.70;99.90;;;;;;5051911;28;20480;-76
2023/07/11 03:26:06;;;;;;;8.32;3.60;;;17.70;99.90;;;;;;5057294;28;20071;-75
2023/07/11 03:28:32;;;;;;;10.95;4.25;;;17.60;99.90;;;;;;5056020;28;20048;-75
2023/07/11 03:30:58;;;;;;;6.20;3.58;;;17.60;99.90;;;;;;5059237;28;20059;-76
2023/07/11 03:33:24;;;;;;;8.48;3.92;;;17.60;99.90;;;;;;5058178;28;20052;-75
2023/07/11 03:35:52;;;;;;;9.55;4.07;;;17.60;99.90;;;;;;5057084;28;20032;-76
2023/07/11 03:38:19;;;;;;;9.25;3.75;;;17.60;99.90;;;;;;5055793;28;20039;-76
2023/07/11 03:40:45;;;;;;;7.47;4.50;;;17.50;99.90;;;;;;5063295;28;20049;-74
2023/07/11 03:43:11;;;;;;;8.18;3.90;;;17.50;99.90;;;;;;5056181;28;20099;-76
2023/07/11 03:45:40;;;;;;;9.65;4.55;;;17.50;99.90;;;;;;5057420;28;20461;-75
2023/07/11 03:48:06;;;;;;;9.40;4.10;;;17.50;99.90;;;;;;5057697;28;20580;-74
2023/07/11 03:50:31;;;;;;;7.60;3.95;;;17.50;99.90;;;;;;5064609;28;20045;-75
2023/07/11 03:52:57;;;;;;;9.60;4.30;;;17.50;99.90;;;;;;5057162;28;20031;-75
2023/07/11 03:55:23;;;;;;;9.02;4.43;;;17.50;99.90;;;;;;5059764;28;20092;-76
2023/07/11 03:57:48;;;;;;;8.40;3.83;;;17.40;99.90;;;;;;5059903;28;20091;-76
2023/07/11 04:00:14;;;;;;;6.05;4.00;;;17.40;99.90;;;;;;5052961;28;20963;-76
2023/07/11 04:02:40;;;;;;;8.02;4.15;;;17.40;99.90;;;;;;5058332;28;20484;-76
2023/07/11 04:05:06;;;;;;;11.48;4.82;;;17.30;99.90;;;;;;5059653;28;20135;-76
2023/07/11 04:07:31;;;;;;;8.05;4.28;;;17.30;99.90;;;;;;5053754;28;20182;-75
2023/07/11 04:09:57;;;;;;;9.60;4.28;;;17.30;99.90;;;;;;5057422;28;20068;-75
2023/07/11 04:12:23;;;;;;;9.20;4.10;;;17.30;99.90;;;;;;5058290;28;20071;-75
2023/07/11 04:14:48;;;;;;;8.10;3.88;;;17.30;99.90;;;;;;5053727;28;20097;-76
2023/07/11 04:17:14;;;;;;;10.30;4.25;;;17.30;99.90;;;;;;5059327;28;20049;-76
2023/07/11 04:19:40;;;;;;;10.60;4.68;;;17.20;99.90;;;;;;5047370;28;20037;-76
2023/07/11 04:22:05;;;;;;;10.55;4.78;;;17.20;99.90;;;;;;5058337;28;20072;-74
2023/07/11 04:24:31;;;;;;;12.00;4.32;;;17.30;99.90;;;;;;5057870;28;20041;-75
2023/07/11 04:26:57;;;;;;;10.32;4.82;;;17.20;99.90;;;;;;5057786;28;20037;-75
2023/07/11 04:29:22;;;;;;;7.80;5.03;;;17.20;99.90;;;;;;5056402;28;20041;-76
2023/07/11 04:31:48;;;;;;;9.57;5.25;;;17.20;99.90;;;;;;5059157;28;20047;-75
2023/07/11 04:34:13;;;;;;;13.38;5.45;;;17.20;99.90;;;;;;5056183;28;20068;-75
2023/07/11 04:36:39;;;;;;;12.57;5.63;;;17.20;99.90;;;;;;5058579;28;20106;-75
2023/07/11 04:39:05;;;;;;;10.10;5.70;;;17.20;99.90;;;;;;5056312;28;20090;-74
2023/07/11 04:41:30;;;;;;;14.35;5.53;;;17.30;99.90;;;;;;5057993;28;20098;-75
2023/07/11 04:43:56;;;;;;;8.57;4.93;;;17.30;99.90;;;;;;5054741;28;20119;-75
2023/07/11 04:46:22;;;;;;;7.07;4.68;;;17.30;99.90;;;;;;5054931;28;20039;-76
2023/07/11 04:48:47;;;;;;;11.65;5.47;;;17.30;99.90;;;;;;5058674;28;20049;-76
2023/07/11 04:51:13;;;;;;;10.45;5.00;;;17.30;99.90;;;;;;5052736;28;20056;-75
2023/07/11 04:53:39;;;;;;;8.55;5.85;;;17.40;99.90;;;;;;5050388;28;20585;-77
2023/07/11 04:56:07;;;;;;;9.75;4.95;;;17.50;99.90;;;;;;5051343;28;20057;-77
2023/07/11 04:58:34;;;;;;;10.13;5.72;;;17.50;99.90;;;;;;5044530;28;20059;-78
2023/07/11 05:01:01;;;;;;;11.38;5.70;;;17.60;99.90;;;;;;5049110;28;20049;-77
2023/07/11 05:03:27;;;;;;;9.57;5.38;;;17.60;99.90;;;;;;5052724;28;20051;-77
2023/07/11 05:05:53;;;;;;;11.35;5.60;;;17.70;99.90;;;;;;5056295;28;20040;-78
2023/07/11 05:08:19;;;;;;;10.75;5.45;;;17.80;99.90;;;;;;5053096;28;20075;-77
2023/07/11 05:10:58;;;;;;;8.32;5.10;;;17.80;99.90;;;;;;5052115;28;20040;-76
2023/07/11 05:13:24;;;;;;;10.85;5.30;;;18.00;99.90;;;;;;5056788;28;20101;-76
2023/07/11 05:15:50;;;;;;;11.55;5.25;;;18.10;99.90;;;;;;5048467;28;20598;-77
2023/07/11 05:18:17;;;;;;;9.05;5.13;;;18.10;99.90;;;;;;5063544;28;20139;-77
2023/07/11 05:20:43;;;;;;;12.25;5.72;;;18.30;99.90;;;;;;5056093;28;20040;-78
2023/07/11 05:23:09;;;;;;;10.95;5.38;;;18.30;99.90;;;;;;5054622;28;20044;-76
2023/07/11 05:25:40;;;;;;;9.52;5.25;;;18.40;99.90;;;;;;5055232;28;20265;-79
2023/07/11 05:28:20;;;;;;;13.07;5.13;;;18.50;99.90;;;;;;5048004;28;20047;-75
2023/07/11 05:30:46;;;;;;;9.73;6.07;;;18.50;99.90;;;;;;5047048;28;20132;-76
2023/07/11 05:33:12;;;;;;;14.18;6.35;;;18.60;99.90;;;;;;5059313;28;20046;-75
2023/07/11 05:35:46;;;;;;;9.27;5.50;;;18.60;99.90;;;;;;5062773;28;20049;-76
2023/07/11 05:38:14;;;;;;;11.55;5.57;;;18.70;99.90;;;;;;5054004;28;20109;-75
2023/07/11 05:40:42;;;;;;;13.18;5.88;;;18.70;99.90;;;;;;5059661;28;20438;-75
2023/07/11 05:43:08;;;;;;;9.90;5.50;;;18.80;99.90;;;;;;5061130;28;20055;-75
2023/07/11 05:45:34;;;;;;;9.60;5.90;;;18.80;99.90;;;;;;5062119;28;20115;-76
2023/07/11 05:48:00;;;;;;;10.60;5.68;;;18.90;99.90;;;;;;5057948;28;20135;-74
2023/07/11 05:50:27;;;;;;;8.68;5.35;;;19.10;99.90;;;;;;5066561;28;20145;-77
2023/07/11 05:52:52;;;;;;;12.20;5.70;;;19.30;99.90;;;;;;5053715;28;20569;-77
2023/07/11 05:55:18;;;;;;;10.70;5.18;;;19.50;99.90;;;;;;5058787;28;20056;-76
2023/07/11 05:57:44;;;;;;;11.07;5.93;;;19.70;99.90;;;;;;5059658;28;20173;-74
2023/07/11 06:00:10;;;;;;;12.43;5.63;;;19.80;99.90;;;;;;5058601;28;20496;-74
2023/07/11 06:02:36;;;;;;;11.18;5.28;;;19.90;99.90;;;;;;5061381;28;20052;-74
2023/07/11 06:05:02;;;;;;;10.68;5.57;;;20.10;99.90;;;;;;5059319;28;20040;-74
2023/07/11 06:07:28;;;;;;;9.25;5.18;;;20.30;99.90;;;;;;5046130;28;20044;-75
2023/07/11 06:09:57;;;;;;;6.53;5.00;;;20.50;99.90;;;;;;5068131;28;20526;-75
2023/07/11 06:12:23;;;;;;;14.23;5.70;;;20.70;99.90;;;;;;5058029;28;20213;-74
2023/07/11 06:14:49;;;;;;;14.95;5.72;;;20.70;99.90;;;;;;5059226;28;20220;-73
2023/07/11 06:17:16;;;;;;;9.50;5.43;;;20.90;99.90;;;;;;5056874;28;20193;-74
2023/07/11 06:19:41;;;;;;;10.95;5.35;;;21.00;99.90;;;;;;5050847;28;20040;-73
2023/07/11 06:22:07;;;;;;;10.98;5.20;;;21.10;99.90;;;;;;5038692;28;20044;-75
2023/07/11 06:24:33;;;;;;;10.93;6.20;;;21.20;99.90;;;;;;5066301;28;20178;-74
2023/07/11 06:26:59;;;;;;;11.05;6.47;;;21.30;99.90;;;;;;5067691;28;20044;-73
2023/07/11 06:29:29;;;;;;;13.35;6.70;;;21.30;99.90;;;;;;5059531;28;20048;-75
2023/07/11 06:31:54;;;;;;;9.65;6.28;;;21.40;99.90;;;;;;5052602;28;20076;-75
2023/07/11 06:34:20;;;;;;;11.25;7.30;;;21.40;99.90;;;;;;5061260;28;20064;-75
2023/07/11 06:36:45;;;;;;;16.60;7.55;;;21.40;99.90;;;;;;5052771;28;20131;-74
2023/07/11 06:39:11;;;;;;;12.95;7.10;;;21.50;99.90;;;;;;5059210;28;20186;-76
2023/07/11 06:41:38;;;;;;;15.90;7.75;;;21.70;99.90;;;;;;5059251;28;20044;-76
2023/07/11 06:44:06;;;;;;;13.77;7.72;;;21.90;99.90;;;;;;5060724;28;20399;-77
2023/07/11 06:46:34;;;;;;;12.57;7.13;;;22.20;99.90;;;;;;5064059;28;20082;-76
2023/07/11 06:49:00;;;;;;;13.00;7.55;;;22.30;99.90;;;;;;5056841;28;20460;-75
2023/07/11 06:51:27;;;;;;;11.57;6.78;;;22.20;99.90;;;;;;5055496;28;20531;-76
2023/07/11 06:53:54;;;;;;;15.75;7.20;;;22.20;99.90;;;;;;5065247;28;20040;-75
2023/07/11 06:56:19;;;;;;;8.32;6.45;;;22.20;99.90;;;;;;5057467;28;20040;-77
2023/07/11 06:58:45;;;;;;;15.63;7.13;;;22.20;99.90;;;;;;5058676;28;20484;-76
2023/07/11 07:01:12;;;;;;;10.57;6.95;;;22.10;99.90;;;;;;5041972;28;20036;-74
2023/07/11 07:03:37;;;;;;;10.55;6.35;;;22.00;99.90;;;;;;5059264;28;20037;-75
2023/07/11 07:06:05;;;;;;;11.48;6.88;;;22.10;99.90;;;;;;5060230;28;20404;-75
2023/07/11 07:08:31;;;;;;;11.50;6.30;;;22.10;99.90;;;;;;5058883;28;20332;-76
2023/07/11 07:10:57;;;;;;;12.75;6.47;;;22.30;99.90;;;;;;5058340;28;20314;-76
2023/07/11 07:13:24;;;;;;;11.88;6.68;;;22.30;99.90;;;;;;5061028;28;20222;-76
2023/07/11 07:15:52;;;;;;;13.27;6.80;;;22.30;99.90;;;;;;5064359;28;20062;-77
2023/07/11 07:18:18;;;;;;;17.10;6.70;;;22.40;99.90;;;;;;5055902;28;20492;-76
2023/07/11 07:20:48;;;;;;;10.57;6.20;;;22.40;99.90;;;;;;5063471;28;20530;-75
2023/07/11 07:23:14;;;;;;;11.35;6.82;;;22.40;99.90;;;;;;5058975;28;20177;-76
2023/07/11 07:25:41;;;;;;;13.02;6.82;;;22.40;99.90;;;;;;5044255;28;20134;-77
2023/07/11 07:28:07;;;;;;;10.98;6.05;;;22.30;99.90;;;;;;5060024;28;20033;-76
2023/07/11 07:30:34;;;;;;;12.30;5.95;;;22.30;99.90;;;;;;5058347;28;20047;-76
2023/07/11 07:33:01;;;;;;;12.90;6.72;;;22.30;99.90;;;;;;5059131;28;20488;-77
2023/07/11 07:35:27;;;;;;;9.15;5.57;;;22.40;99.90;;;;;;5063984;28;20411;-76
2023/07/11 07:37:52;;;;;;;10.27;5.63;;;22.50;99.90;;;;;;5063803;28;20052;-75
2023/07/11 07:40:18;;;;;;;10.07;5.93;;;22.60;99.90;;;;;;5060044;28;20052;-75
2023/07/11 07:42:44;;;;;;;10.30;5.15;;;22.70;99.90;;;;;;5056999;28;20533;-76
2023/07/11 07:45:09;;;;;;;13.02;6.53;;;22.90;99.90;;;;;;5052785;28;20166;-79
2023/07/11 07:47:35;;;;;;;9.18;5.82;;;23.10;99.90;;;;;;5053971;28;20064;-76
2023/07/11 07:50:02;;;;;;;10.45;5.72;;;23.30;99.90;;;;;;5065481;28;20063;-76
2023/07/11 07:52:28;;;;;;;12.20;5.47;;;23.50;99.90;;;;;;5069043;28;20044;-75
2023/07/11 07:54:54;;;;;;;12.30;5.10;;;23.60;99.90;;;;;;5062693;28;20169;-75
2023/07/11 07:57:19;;;;;;;11.90;5.07;;;23.90;99.90;;;;;;5063576;28;20047;-76
2023/07/11 07:59:45;;;;;;;12.32;5.60;;;24.20;99.90;;;;;;5064045;28;20048;-81
2023/07/11 08:02:11;;;;;;;11.02;5.00;;;24.50;99.90;;;;;;5062817;28;20052;-76
2023/07/11 08:04:36;;;;;;;7.32;4.50;;;24.60;99.90;;;;;;5062993;28;20040;-78
2023/07/11 08:07:03;;;;;;;7.68;4.40;;;24.60;99.90;;;;;;5061464;28;20032;-76
2023/07/11 08:09:29;;;;;;;10.25;4.68;;;24.70;99.90;;;;;;5063482;28;20178;-78
2023/07/11 08:12:08;;;;;;;10.63;4.60;;;24.90;99.90;;;;;;5054846;28;20044;-78
2023/07/11 08:14:38;;;;;;;8.88;4.60;;;25.00;99.90;;;;;;5067602;28;20618;-80
2023/07/11 08:17:05;;;;;;;8.52;4.25;;;25.30;99.90;;;;;;5063710;28;20044;-78
2023/07/11 08:19:31;;;;;;;10.95;4.72;;;25.40;99.90;;;;;;5061595;28;20029;-78
2023/07/11 08:21:57;;;;;;;9.50;4.45;;;25.40;99.90;;;;;;5043464;28;20040;-77
2023/07/11 08:24:23;;;;;;;9.18;4.53;;;25.30;99.90;;;;;;5068373;28;20581;-78
2023/07/11 08:26:50;;;;;;;10.10;4.40;;;25.40;99.90;;;;;;5066263;28;20046;-79
2023/07/11 08:29:16;;;;;;;9.57;4.90;;;25.60;99.90;;;;;;5062286;28;20041;-78
2023/07/11 08:31:42;;;;;;;7.75;4.15;;;25.80;99.90;;;;;;5056207;28;20091;-78
2023/07/11 08:34:11;;;;;;;9.30;3.97;;;25.90;99.90;;;;;;5054562;28;20121;-77
2023/07/11 08:36:40;;;;;;;7.47;4.05;;;26.10;99.90;;;;;;5059613;28;20056;-78
2023/07/11 08:39:06;;;;;;;9.32;4.00;;;26.10;99.90;;;;;;5062446;28;20041;-78
2023/07/11 08:41:44;;;;;;;6.72;3.17;;;26.30;99.90;;;;;;5066691;28;20054;-78
2023/07/11 08:44:16;;;;;;;6.90;3.60;;;26.40;99.90;;;;;;5063127;28;20044;-76
2023/07/11 08:46:53;;;;;;;10.45;3.40;;;26.60;99.90;;;;;;5063385;28;20049;-78
2023/07/11 08:50:00;;;;;;;6.72;3.60;;;26.80;99.90;;;;;;5041614;28;20177;-77
2023/07/11 08:52:29;;;;;;;6.40;3.15;;;27.00;99.90;;;;;;5046340;28;20053;-78
2023/07/11 08:55:01;;;;;;;7.22;3.05;;;27.10;99.90;;;;;;5059600;28;20408;-78
2023/07/11 08:57:31;;;;;;;8.95;3.22;;;27.20;99.90;;;;;;5055185;28;20303;-79
2023/07/11 09:00:02;;;;;;;9.48;3.50;;;27.30;99.90;;;;;;5062039;28;20036;-79
2023/07/11 09:02:46;;;;;;;11.65;3.05;;;27.30;99.90;;;;;;5058079;28;20411;-77
2023/07/11 09:05:17;;;;;;;11.35;4.13;;;27.30;99.90;;;;;;5060118;28;20047;-77
2023/07/11 09:07:44;;;;;;;8.13;3.40;;;27.10;99.90;;;;;;5069209;28;20522;-77
2023/07/11 09:10:26;;;;;;;5.47;2.65;;;26.90;99.90;;;;;;5064379;28;20045;-77
2023/07/11 09:13:26;;;;;;;10.90;3.65;;;27.00;99.90;;;;;;5057586;28;20041;-77
2023/07/11 09:16:03;;;;;;;8.35;2.80;;;27.20;99.90;;;;;;5057437;28;20500;-79
2023/07/11 09:18:41;;;;;;;9.18;3.30;;;27.50;99.90;;;;;;5056650;28;20041;-78
2023/07/11 09:21:11;;;;;;;6.38;2.78;;;27.60;99.90;;;;;;5059508;28;20052;-78
2023/07/11 09:23:44;;;;;;;9.43;2.50;;;27.90;99.90;;;;;;5064883;28;20060;-79
2023/07/11 09:26:21;;;;;;;13.27;3.20;;;28.00;99.90;;;;;;5066617;28;20538;-78
2023/07/11 09:28:48;;;;;;;9.52;2.55;;;27.80;99.90;;;;;;5058950;28;20044;-79
2023/07/11 09:31:19;;;;;;;10.50;2.92;;;27.90;99.90;;;;;;5066914;28;20044;-79
2023/07/11 09:33:52;;;;;;;10.68;2.80;;;27.80;99.90;;;;;;5058400;28;20063;-78
2023/07/11 09:36:26;;;;;;;6.10;2.70;;;27.70;99.90;;;;;;5058210;28;20044;-80
2023/07/11 09:39:21;;;;;;;9.15;3.00;;;27.70;99.90;;;;;;5062362;28;20043;-79
2023/07/11 09:41:59;;;;;;;9.20;3.13;;;27.70;99.90;;;;;;5019635;28;20055;-79
2023/07/11 09:44:25;;;;;;;7.93;3.45;;;27.80;99.90;;;;;;5061603;28;20059;-79
2023/07/11 09:46:51;;;;;;;8.43;3.65;;;27.80;99.90;;;;;;5045544;28;20037;-78
2023/07/11 09:49:30;;;;;;;9.52;3.40;;;27.80;99.90;;;;;;5059085;28;20158;-79
2023/07/11 09:51:59;;;;;;;8.18;3.15;;;28.00;99.90;;;;;;5043996;28;20049;-79
2023/07/11 09:54:45;;;;;;;7.72;3.47;;;28.20;99.90;;;;;;5053770;28;20071;-79
2023/07/11 09:57:12;;;;;;;10.95;4.20;;;28.30;99.90;;;;;;5059822;28;20106;-79
2023/07/11 09:59:42;;;;;;;9.35;3.53;;;28.30;99.90;;;;;;5062229;28;20044;-79
2023/07/11 10:02:15;;;;;;;9.20;3.80;;;28.20;99.90;;;;;;5056928;28;20052;-79
2023/07/11 10:04:42;;;;;;;9.45;3.78;;;28.20;99.90;;;;;;5060579;28;20435;-79
2023/07/11 10:07:14;;;;;;;10.07;3.45;;;28.10;99.90;;;;;;5063489;28;20475;-78
2023/07/11 10:09:49;;;;;;;11.55;3.67;;;28.00;99.90;;;;;;5048379;28;20127;-78
2023/07/11 10:12:19;;;;;;;7.95;4.05;;;28.00;99.90;;;;;;5063908;28;20036;-79
2023/07/11 10:14:52;;;;;;;11.20;4.00;;;27.80;99.90;;;;;;5058941;28;20515;-78
2023/07/11 10:17:31;;;;;;;10.80;3.90;;;27.60;99.90;;;;;;5060182;28;20049;-78
2023/07/11 10:19:59;;;;;;;8.98;4.10;;;27.50;99.90;;;;;;5063808;28;20033;-79
2023/07/11 10:22:28;;;;;;;8.63;4.13;;;27.30;99.90;;;;;;5048890;28;20500;-79
2023/07/11 10:25:27;;;;;;;9.15;3.70;;;27.10;99.90;;;;;;5057766;28;20057;-79
2023/07/11 10:28:01;;;;;;;8.77;4.10;;;27.00;99.90;;;;;;5040059;28;20085;-79
2023/07/11 10:30:31;;;;;;;10.02;4.20;;;26.90;99.90;;;;;;5062191;28;20149;-78
2023/07/11 10:33:13;;;;;;;11.45;3.78;;;27.00;99.90;;;;;;5038760;28;20082;-79
2023/07/11 10:35:40;;;;;;;10.68;4.35;;;27.10;99.90;;;;;;5052136;28;20041;-78
2023/07/11 10:38:46;;;;;;;11.32;3.97;;;27.20;99.90;;;;;;5063795;28;20044;-78
2023/07/11 10:41:20;;;;;;;10.15;4.03;;;27.40;99.90;;;;;;5031201;28;20761;-80
2023/07/11 10:43:49;;;;;;;11.48;3.72;;;27.50;99.90;;;;;;5061406;28;20396;-79
2023/07/11 10:46:20;;;;;;;11.18;3.58;;;27.60;99.90;;;;;;5057346;28;20484;-79
2023/07/11 10:48:52;;;;;;;11.35;3.40;;;27.60;99.90;;;;;;5056540;28;20044;-80
2023/07/11 10:51:44;;;;;;;6.40;2.63;;;27.70;99.90;;;;;;5056153;28;20041;-80
2023/07/11 10:54:31;;;;;;;6.65;2.58;;;27.70;99.90;;;;;;5062388;28;20388;-78
2023/07/11 10:57:02;;;;;;;5.93;2.03;;;27.90;99.90;;;;;;5063988;28;20068;-78
2023/07/11 10:59:31;;;;;;;8.90;2.60;;;28.10;99.90;;;;;;5059406;28;20060;-79
2023/07/11 11:02:11;;;;;;;9.82;2.97;;;28.30;99.90;;;;;;5055946;28;20136;-80
2023/07/11 11:04:49;;;;;;;7.57;2.58;;;28.20;99.90;;;;;;5062288;28;20041;-79
2023/07/11 11:07:33;;;;;;;8.32;2.72;;;28.00;99.90;;;;;;5057610;28;20065;-78
2023/07/11 11:10:11;;;;;;;8.23;2.88;;;28.00;99.90;;;;;;5061635;28;20537;-80
2023/07/11 11:12:57;;;;;;;14.50;3.10;;;28.00;99.90;;;;;;5047795;28;20048;-80
2023/07/11 11:15:39;;;;;;;9.07;3.63;;;27.90;99.90;;;;;;5057145;28;20044;-79
2023/07/11 11:18:04;;;;;;;7.60;3.13;;;27.80;99.90;;;;;;5058882;28;20044;-79
2023/07/11 11:20:54;;;;;;;8.30;2.67;;;27.60;99.90;;;;;;5063020;28;20288;-81
2023/07/11 11:23:42;;;;;;;7.45;2.97;;;27.60;99.90;;;;;;5061527;28;20040;-80
2023/07/11 11:26:11;;;;;;;6.75;2.78;;;27.50;99.90;;;;;;5061876;28;20044;-79
2023/07/11 11:29:02;;;;;;;7.88;2.78;;;27.30;99.90;;;;;;5059922;28;20052;-80
2023/07/11 11:31:31;;;;;;;5.68;2.80;;;27.30;99.90;;;;;;5054554;28;20052;-80
2023/07/11 11:34:31;;;;;;;8.65;2.60;;;27.40;99.90;;;;;;5059869;28;20093;-79
2023/07/11 11:37:02;;;;;;;8.57;2.80;;;27.40;99.90;;;;;;5062056;28;20123;-80
2023/07/11 11:39:46;;;;;;;6.63;2.90;;;27.50;99.90;;;;;;5062195;28;20056;-81
2023/07/11 11:42:20;;;;;;;9.60;2.63;;;27.50;99.90;;;;;;5066987;28;20416;-81
2023/07/11 11:45:01;;;;;;;9.38;2.90;;;27.60;99.90;;;;;;5062115;28;20052;-82
2023/07/11 11:47:28;;;;;;;7.45;3.30;;;27.70;99.90;;;;;;5054538;28;20561;-81
2023/07/11 11:49:58;;;;;;;9.65;3.00;;;27.70;99.90;;;;;;5045097;28;20075;-80
2023/07/11 11:52:24;;;;;;;6.07;2.85;;;27.70;99.90;;;;;;5045204;28;20128;-81
2023/07/11 11:54:50;;;;;;;9.95;2.63;;;27.70;99.90;;;;;;5062736;28;20506;-79
2023/07/11 11:57:32;;;;;;;9.43;2.25;;;27.80;99.90;;;;;;5061812;28;20045;-81
2023/07/11 11:59:59;;;;;;;5.47;2.17;;;27.80;99.90;;;;;;5062958;28;20045;-79
2023/07/11 12:02:38;;;;;;;8.60;2.95;;;27.90;99.90;;;;;;5064486;28;20131;-78
2023/07/11 12:05:20;;;;;;;6.53;2.38;;;28.00;99.90;;;;;;5066097;28;20052;-79
2023/07/11 12:08:16;;;;;;;5.63;2.10;;;28.00;99.90;;;;;;5062991;28;20123;-80
2023/07/11 12:11:06;;;;;;;5.38;1.83;;;28.10;99.90;;;;;;5064544;28;20041;-79
2023/07/11 12:13:42;;;;;;;4.88;1.60;;;28.00;99.90;;;;;;5066394;28;20587;-81
2023/07/11 12:16:32;;;;;;;5.32;1.83;;;28.00;99.90;;;;;;5065734;28;20051;-80
2023/07/11 12:19:02;;;;;;;6.50;1.67;;;27.80;99.90;;;;;;5064708;28;20194;-79
2023/07/11 12:21:41;;;;;;;5.00;1.88;;;27.50;99.90;;;;;;5067698;28;20044;-81
2023/07/11 12:24:40;;;;;;;6.97;1.70;;;27.40;99.90;;;;;;5065162;28;20067;-77
2023/07/11 12:27:18;;;;;;;3.70;1.40;;;27.50;99.90;;;;;;5060777;28;20045;-79
2023/07/11 12:29:47;;;;;;;5.10;1.27;;;27.50;99.90;;;;;;5060312;28;20123;-80
2023/07/11 12:32:49;;;;;;;5.63;1.55;;;27.40;99.90;;;;;;5065402;28;20098;-80
2023/07/11 12:35:25;;;;;;;6.55;1.60;;;27.20;99.90;;;;;;4983901;28;20524;-79
2023/07/11 12:37:58;;;;;;;6.03;1.27;;;27.00;99.90;;;;;;5053177;28;20336;-81
2023/07/11 12:41:06;;;;;;;4.63;1.50;;;26.80;99.90;;;;;;5061425;28;20527;-80
2023/07/11 12:43:36;;;;;;;2.40;1.10;;;26.90;99.90;;;;;;5057255;28;20087;-79
2023/07/11 12:46:12;;;;;;;2.53;1.10;;;27.00;99.90;;;;;;5041179;28;20051;-77
2023/07/11 12:48:46;;;;;;;4.70;1.63;;;27.10;99.90;;;;;;5062420;28;20052;-78
2023/07/11 12:51:36;;;;;;;3.63;1.38;;;27.00;99.90;;;;;;5055934;28;20032;-79
2023/07/11 12:54:14;;;;;;;3.30;1.63;;;26.80;99.90;;;;;;5064877;28;20037;-78
2023/07/11 12:56:51;;;;;;;2.72;1.15;;;26.60;99.90;;;;;;5048661;28;20128;-80